createdAt,value
2023-03-30T00:01:42.043Z,5
2023-03-30T00:07:43.131Z,4
2023-03-30T00:13:40.999Z,4
2023-03-30T00:19:39.583Z,4
2023-03-30T00:25:40.236Z,5
2023-03-30T00:31:39.509Z,8
2023-03-30T00:37:40.368Z,2
2023-03-30T00:43:39.689Z,3
2023-03-30T00:49:39.369Z,5
2023-03-30T00:55:39.488Z,3
2023-03-30T01:01:48.970Z,4
2023-03-30T01:07:47.451Z,3
2023-03-30T01:13:39.777Z,3
2023-03-30T01:19:39.232Z,3
2023-03-30T01:28:39.217Z,3
2023-03-30T01:34:39.308Z,3
2023-03-30T01:40:39.250Z,3
2023-03-30T01:49:39.339Z,3
2023-03-30T01:55:45.209Z,3
2023-03-30T02:01:42.664Z,4
2023-03-30T02:07:40.367Z,4
2023-03-30T02:13:44.502Z,4
2023-03-30T02:19:50.562Z,4
2023-03-30T02:25:46.190Z,5
2023-03-30T02:31:40.491Z,7
2023-03-30T02:37:39.449Z,5
2023-03-30T02:43:39.189Z,5
2023-03-30T02:49:39.276Z,5
2023-03-30T02:55:39.241Z,7
2023-03-30T03:01:39.489Z,7
2023-03-30T03:07:39.781Z,3
2023-03-30T03:13:41.156Z,9
2023-03-30T03:19:39.556Z,5
2023-03-30T03:25:41.148Z,5
2023-03-30T03:31:45.846Z,5
2023-03-30T03:37:40.901Z,5
2023-03-30T03:43:39.537Z,6
2023-03-30T03:49:39.635Z,7
2023-03-30T03:55:44.625Z,7
2023-03-30T04:01:40.662Z,4
2023-03-30T04:07:39.594Z,5
2023-03-30T04:13:40.654Z,6
2023-03-30T04:19:40.394Z,5
2023-03-30T04:25:47.325Z,5
2023-03-30T04:31:42.392Z,4
2023-03-30T04:37:43.474Z,5
2023-03-30T04:43:40.145Z,5
2023-03-30T04:49:39.731Z,5
2023-03-30T04:55:50.630Z,9
2023-03-30T05:01:44.426Z,7
2023-03-30T05:07:40.061Z,8
2023-03-30T05:13:41.537Z,4
2023-03-30T05:19:42.723Z,9
2023-03-30T05:25:39.908Z,6
2023-03-30T05:31:39.524Z,7
2023-03-30T05:37:39.475Z,8
2023-03-30T05:43:40.214Z,8
2023-03-30T05:49:40.281Z,8
2023-03-30T05:55:39.820Z,12
2023-03-30T06:01:40.147Z,5
2023-03-30T06:07:39.683Z,5
2023-03-30T06:13:40.647Z,4
2023-03-30T06:19:39.595Z,6
2023-03-30T06:25:40.064Z,5
2023-03-30T06:31:39.536Z,7
2023-03-30T06:37:39.990Z,8
2023-03-30T06:43:39.534Z,4
2023-03-30T06:49:39.587Z,6
2023-03-30T06:55:40.740Z,6
2023-03-30T07:01:39.916Z,7
2023-03-30T07:07:40.076Z,3
2023-03-30T07:13:40.455Z,7
2023-03-30T07:19:40.047Z,9
2023-03-30T07:25:40.767Z,6
2023-03-30T07:31:39.980Z,6
2023-03-30T07:37:40.290Z,3
2023-03-30T07:43:39.975Z,6
2023-03-30T07:49:39.732Z,5
2023-03-30T07:55:39.974Z,5
2023-03-30T08:01:40.247Z,6
2023-03-30T08:07:40.468Z,6
2023-03-30T08:13:40.175Z,3
2023-03-30T08:19:40.101Z,3
2023-03-30T08:25:41.001Z,5
2023-03-30T08:31:40.683Z,3
2023-03-30T08:37:40.165Z,5
2023-03-30T08:43:39.421Z,3
2023-03-30T08:49:39.792Z,2
2023-03-30T08:55:40.783Z,4
2023-03-30T09:01:39.490Z,7
2023-03-30T09:07:39.568Z,3
2023-03-30T09:13:39.528Z,3
2023-03-30T09:19:39.779Z,3
2023-03-30T09:25:40.621Z,3
2023-03-30T09:31:39.719Z,2
2023-03-30T09:37:39.728Z,4
2023-03-30T09:43:39.449Z,3
2023-03-30T09:49:39.619Z,3
2023-03-30T09:55:39.672Z,6
2023-03-30T10:01:39.641Z,2
2023-03-30T10:07:39.734Z,2
2023-03-30T10:13:40.078Z,2
2023-03-30T10:19:43.444Z,1
2023-03-30T10:25:39.486Z,2
2023-03-30T10:31:39.621Z,3
2023-03-30T10:37:40.133Z,1
2023-03-30T10:43:39.649Z,2
2023-03-30T10:49:39.379Z,1
2023-03-30T10:58:39.364Z,1
2023-03-30T11:07:39.741Z,1
2023-03-30T11:13:39.720Z,2
2023-03-30T11:19:39.616Z,2
2023-03-30T11:25:39.469Z,1
2023-03-30T11:31:39.472Z,2
2023-03-30T11:37:39.442Z,2
2023-03-30T11:43:39.516Z,1
2023-03-30T11:49:39.347Z,3
2023-03-30T11:58:39.368Z,2
2023-03-30T12:10:39.466Z,1
2023-03-30T12:16:39.506Z,2
2023-03-30T12:22:39.515Z,1
2023-03-30T12:28:54.296Z,1
2023-03-30T12:34:39.472Z,1
2023-03-30T12:46:39.459Z,2
2023-03-30T12:55:39.295Z,2
2023-03-30T13:04:39.485Z,3
2023-03-30T13:10:39.648Z,3
2023-03-30T13:16:39.503Z,4
2023-03-30T13:25:39.365Z,4
2023-03-30T13:31:39.485Z,4
2023-03-30T13:37:39.356Z,5
2023-03-30T13:43:39.387Z,6
2023-03-30T13:52:39.450Z,3
2023-03-30T13:58:39.757Z,4
2023-03-30T14:04:39.662Z,2
2023-03-30T14:10:39.596Z,3
2023-03-30T14:16:39.819Z,3
2023-03-30T14:22:39.881Z,3
2023-03-30T14:28:39.545Z,2
2023-03-30T14:34:39.779Z,2
2023-03-30T14:40:39.699Z,3
2023-03-30T14:46:39.709Z,2
2023-03-30T14:52:40.192Z,3
2023-03-30T15:04:40.139Z,5
2023-03-30T15:10:40.935Z,4
2023-03-30T15:16:39.709Z,2
2023-03-30T15:22:40.173Z,4
2023-03-30T15:28:39.691Z,3
2023-03-30T15:40:40.109Z,4
2023-03-30T15:46:39.637Z,3
2023-03-30T15:52:39.507Z,3
2023-03-30T15:58:39.880Z,2
2023-03-30T16:04:40.043Z,2
2023-03-30T16:10:39.982Z,2
2023-03-30T16:16:40.080Z,2
2023-03-30T16:22:39.829Z,4
2023-03-30T16:28:42.742Z,2
2023-03-30T16:34:42.814Z,2
2023-03-30T16:40:42.283Z,3
2023-03-30T16:46:42.450Z,4
2023-03-30T16:52:39.722Z,2
2023-03-30T16:58:40.052Z,4
2023-03-30T17:04:40.842Z,2
2023-03-30T17:10:39.874Z,2
2023-03-30T17:16:40.341Z,2
2023-03-30T17:22:39.828Z,2
2023-03-30T17:28:39.896Z,1
2023-03-30T17:34:39.830Z,3
2023-03-30T17:40:39.612Z,2
2023-03-30T17:46:40.083Z,2
2023-03-30T17:52:40.058Z,3
2023-03-30T17:58:40.018Z,3
2023-03-30T18:04:40.198Z,2
2023-03-30T18:10:39.715Z,3
2023-03-30T18:16:40.188Z,3
2023-03-30T18:22:40.470Z,3
2023-03-30T18:28:39.948Z,2
2023-03-30T18:34:40.764Z,2
2023-03-30T18:40:39.865Z,2
2023-03-30T18:46:39.928Z,2
2023-03-30T18:52:39.838Z,1
2023-03-30T18:58:39.854Z,3
2023-03-30T19:04:40.453Z,2
2023-03-30T19:10:39.956Z,2
2023-03-30T19:16:40.293Z,2
2023-03-30T19:22:39.654Z,2
2023-03-30T19:28:40.126Z,2
2023-03-30T19:34:39.939Z,4
2023-03-30T19:40:39.848Z,4
2023-03-30T19:46:39.722Z,2
2023-03-30T19:52:39.883Z,3
2023-03-30T19:58:40.221Z,3
2023-03-30T20:04:40.060Z,4
2023-03-30T20:10:40.223Z,4
2023-03-30T20:22:40.630Z,4
2023-03-30T20:28:39.836Z,5
2023-03-30T20:34:40.117Z,3
2023-03-30T20:40:40.029Z,3
2023-03-30T20:46:40.079Z,2
2023-03-30T20:52:40.214Z,3
2023-03-30T20:58:39.876Z,5
2023-03-30T21:04:39.785Z,2
2023-03-30T21:10:39.866Z,3
2023-03-30T21:16:39.958Z,2
2023-03-30T21:28:39.859Z,2
2023-03-30T21:34:40.121Z,3
2023-03-30T21:40:41.270Z,2
2023-03-30T21:46:40.567Z,3
2023-03-30T21:52:40.389Z,2
2023-03-30T21:58:39.806Z,3
2023-03-30T22:04:39.855Z,2
2023-03-30T22:10:40.335Z,2
2023-03-30T22:16:40.552Z,2
2023-03-30T22:22:40.655Z,5
2023-03-30T22:28:40.294Z,3
2023-03-30T22:34:40.360Z,3
2023-03-30T22:40:40.271Z,2
2023-03-30T22:46:40.372Z,4
2023-03-30T22:52:39.762Z,3
2023-03-30T22:58:40.260Z,2
2023-03-30T23:04:40.334Z,3
2023-03-30T23:10:39.961Z,4
2023-03-30T23:16:39.837Z,3
2023-03-30T23:22:41.166Z,4
2023-03-30T23:28:40.141Z,2
2023-03-30T23:34:40.298Z,4
2023-03-30T23:40:40.186Z,2
2023-03-30T23:46:40.981Z,3
2023-03-30T23:52:40.098Z,2
2023-03-30T23:58:40.056Z,3
